createdAt,value
2023-01-11T00:04:00.553Z,86
2023-01-11T00:14:00.534Z,86
2023-01-11T00:24:00.532Z,86
2023-01-11T00:34:00.514Z,86
2023-01-11T00:44:00.506Z,86
2023-01-11T00:54:00.495Z,86
2023-01-11T01:04:00.480Z,87
2023-01-11T01:14:00.493Z,87
2023-01-11T01:24:00.489Z,87
2023-01-11T01:34:00.459Z,87
2023-01-11T01:44:00.487Z,87
2023-01-11T01:54:00.438Z,87
2023-01-11T02:04:00.431Z,87
2023-01-11T02:14:00.420Z,87
2023-01-11T02:24:00.413Z,87
2023-01-11T02:34:00.407Z,87
2023-01-11T02:44:00.403Z,87
2023-01-11T02:54:00.396Z,88
2023-01-11T03:04:00.378Z,88
2023-01-11T03:14:00.391Z,88
2023-01-11T03:24:00.390Z,88
2023-01-11T03:34:00.362Z,88
2023-01-11T03:44:00.345Z,88
2023-01-11T03:54:00.328Z,88
2023-01-11T04:04:00.423Z,88
2023-01-11T04:14:00.323Z,88
2023-01-11T04:24:00.319Z,88
2023-01-11T04:34:00.307Z,88
2023-01-11T04:44:00.302Z,88
2023-01-11T04:54:00.290Z,88
2023-01-11T05:04:00.329Z,88
2023-01-11T05:14:00.317Z,88
2023-01-11T05:24:00.293Z,88
2023-01-11T05:34:00.311Z,88
2023-01-11T05:44:00.283Z,89
2023-01-11T05:54:00.272Z,89
2023-01-11T06:04:00.270Z,89
2023-01-11T06:14:00.268Z,89
2023-01-11T06:24:00.256Z,89
2023-01-11T06:34:00.258Z,89
2023-01-11T06:44:00.331Z,89
2023-01-11T06:54:00.243Z,89
2023-01-11T07:04:00.221Z,89
2023-01-11T07:14:00.224Z,89
2023-01-11T07:24:00.201Z,89
2023-01-11T07:34:00.205Z,89
2023-01-11T07:44:00.199Z,89
2023-01-11T07:54:00.174Z,89
2023-01-11T08:04:00.153Z,89
2023-01-11T08:14:00.169Z,89
2023-01-11T08:24:00.147Z,89
2023-01-11T08:34:00.148Z,89
2023-01-11T08:44:00.136Z,89
2023-01-11T08:54:00.123Z,90
2023-01-11T09:04:00.154Z,90
2023-01-11T09:14:00.123Z,90
2023-01-11T09:24:00.084Z,90
2023-01-11T09:34:00.089Z,90
2023-01-11T09:44:00.081Z,90
2023-01-11T09:54:00.064Z,90
2023-01-11T10:04:00.086Z,90
2023-01-11T10:24:00.037Z,89
2023-01-11T10:34:00.025Z,89
2023-01-11T10:44:00.009Z,89
2023-01-11T10:54:00.006Z,88
2023-01-11T11:03:59.969Z,88
2023-01-11T11:13:59.967Z,87
2023-01-11T11:23:59.954Z,87
2023-01-11T11:33:59.933Z,87
2023-01-11T11:43:59.954Z,86
2023-01-11T11:53:59.908Z,86
2023-01-11T12:03:59.892Z,86
2023-01-11T12:13:59.870Z,86
2023-01-11T12:23:59.841Z,86
2023-01-11T12:33:59.858Z,86
2023-01-11T12:43:59.844Z,86
2023-01-11T12:53:59.838Z,87
2023-01-11T13:03:59.806Z,87
2023-01-11T13:13:59.774Z,88
2023-01-11T13:23:59.765Z,88
2023-01-11T13:33:59.745Z,88
2023-01-11T13:43:59.763Z,89
2023-01-11T13:53:59.841Z,89
2023-01-11T14:03:59.827Z,89
2023-01-11T14:13:59.805Z,90
2023-01-11T14:23:59.716Z,90
2023-01-11T14:33:59.684Z,90
2023-01-11T14:43:59.690Z,91
2023-01-11T14:53:59.669Z,91
2023-01-11T15:03:59.673Z,91
2023-01-11T15:13:59.632Z,91
2023-01-11T15:23:59.630Z,91
2023-01-11T15:33:59.744Z,91
2023-01-11T15:43:59.624Z,92
2023-01-11T15:53:59.605Z,92
2023-01-11T16:04:00.628Z,92
2023-01-11T16:13:59.576Z,92
2023-01-11T16:23:59.587Z,92
2023-01-11T16:33:59.557Z,92
2023-01-11T16:43:59.542Z,92
2023-01-11T16:53:59.558Z,92
2023-01-11T17:04:00.177Z,92
2023-01-11T17:13:59.503Z,92
2023-01-11T17:23:59.492Z,92
2023-01-11T17:33:59.488Z,92
2023-01-11T17:43:59.474Z,93
2023-01-11T17:53:59.461Z,93
2023-01-11T18:03:59.460Z,93
2023-01-11T18:13:59.465Z,93
2023-01-11T18:23:59.429Z,93
2023-01-11T18:33:59.427Z,93
2023-01-11T18:43:59.389Z,93
2023-01-11T18:53:59.393Z,93
2023-01-11T19:03:59.377Z,93
2023-01-11T19:13:59.368Z,93
2023-01-11T19:23:59.360Z,93
2023-01-11T19:33:59.341Z,93
2023-01-11T19:43:59.345Z,93
2023-01-11T19:53:59.313Z,93
2023-01-11T20:03:59.330Z,94
2023-01-11T20:13:59.300Z,94
2023-01-11T20:23:59.348Z,94
2023-01-11T20:33:59.281Z,94
2023-01-11T20:43:59.262Z,94
2023-01-11T20:53:59.240Z,94
2023-01-11T21:03:59.239Z,94
2023-01-11T21:13:59.279Z,94
2023-01-11T21:23:59.234Z,94
2023-01-11T21:33:59.223Z,94
2023-01-11T21:43:59.190Z,94
2023-01-11T21:53:59.189Z,94
2023-01-11T22:03:59.261Z,94
2023-01-11T22:13:59.153Z,94
2023-01-11T22:23:59.150Z,94
2023-01-11T22:33:59.136Z,94
2023-01-11T22:43:59.145Z,94
2023-01-11T22:53:59.131Z,94
2023-01-11T23:03:59.216Z,94
2023-01-11T23:13:59.093Z,94
2023-01-11T23:23:59.134Z,94
2023-01-11T23:33:59.107Z,94
2023-01-11T23:43:59.059Z,94
2023-01-11T23:53:59.066Z,95
